Time;durP1;ratioP1;P1;durP2;ratioP2;P2;SDS_P1;SDS_P2;PMS_P1;PMS_P2;Temp;Humidity;BMP_temperature;BMP_pressure;BME280_temperature;BME280_humidity;BME280_pressure;Samples;Min_cycle;Max_cycle;Signal;HPM_P1;HPM_P2
2024/02/02 00:01:58;;;;;;;30.83;11.90;;;5.00;74.90;;;;;;5072627;28;20433;-77
2024/02/02 00:04:23;;;;;;;35.90;12.10;;;5.00;75.10;;;;;;5074580;28;20372;-77
2024/02/02 00:06:49;;;;;;;39.80;11.80;;;5.10;74.20;;;;;;5075039;28;20723;-78
2024/02/02 00:09:14;;;;;;;32.05;12.15;;;5.10;74.00;;;;;;5076149;28;20506;-76
2024/02/02 00:11:40;;;;;;;35.97;12.68;;;5.10;74.40;;;;;;5075343;28;20870;-76
2024/02/02 00:14:06;;;;;;;43.85;11.98;;;5.10;74.90;;;;;;5071544;28;20467;-77
2024/02/02 00:16:32;;;;;;;32.07;12.00;;;5.20;74.10;;;;;;5073663;28;20981;-79
2024/02/02 00:18:57;;;;;;;34.97;11.30;;;5.40;72.40;;;;;;5072895;28;20380;-77
2024/02/02 00:21:23;;;;;;;36.00;11.68;;;5.40;71.00;;;;;;5077554;28;20407;-78
2024/02/02 00:23:48;;;;;;;37.28;11.82;;;5.30;71.50;;;;;;5077419;28;20376;-76
2024/02/02 00:26:14;;;;;;;36.53;12.25;;;5.30;72.20;;;;;;5072978;28;20371;-76
2024/02/02 00:28:39;;;;;;;32.17;11.30;;;5.20;73.00;;;;;;5070721;28;20375;-77
2024/02/02 00:31:05;;;;;;;43.30;12.18;;;5.10;74.20;;;;;;5076716;28;20386;-76
2024/02/02 00:33:31;;;;;;;34.20;11.52;;;5.00;75.00;;;;;;5076451;28;20443;-77
2024/02/02 00:35:57;;;;;;;35.88;11.32;;;5.00;75.70;;;;;;5074936;28;20433;-76
2024/02/02 00:38:22;;;;;;;34.33;11.97;;;5.00;76.10;;;;;;5056940;28;20399;-78
2024/02/02 00:40:48;;;;;;;33.03;11.30;;;5.00;75.90;;;;;;5079115;28;20403;-77
2024/02/02 00:43:14;;;;;;;34.05;11.07;;;5.10;75.50;;;;;;5073900;28;20463;-77
2024/02/02 00:45:39;;;;;;;40.40;11.15;;;5.10;74.40;;;;;;5070382;28;20792;-77
2024/02/02 00:48:05;;;;;;;41.15;11.30;;;5.20;73.10;;;;;;5072287;28;20794;-77
2024/02/02 00:50:30;;;;;;;47.47;11.25;;;5.30;72.60;;;;;;5072231;28;20473;-76
2024/02/02 00:52:56;;;;;;;34.80;11.03;;;5.50;69.80;;;;;;5074164;28;20478;-77
2024/02/02 00:55:22;;;;;;;30.10;10.10;;;5.60;68.30;;;;;;5076764;28;20514;-77
2024/02/02 00:57:47;;;;;;;38.07;10.70;;;5.50;69.80;;;;;;5085588;28;20398;-77
2024/02/02 01:00:13;;;;;;;26.85;9.20;;;5.50;69.50;;;;;;5085438;28;20407;-75
2024/02/02 01:02:41;;;;;;;26.77;10.20;;;5.50;70.10;;;;;;5082305;28;20438;-78
2024/02/02 01:05:10;;;;;;;32.63;10.80;;;5.40;70.30;;;;;;5072572;28;20392;-75
2024/02/02 01:07:36;;;;;;;31.25;9.63;;;5.40;70.70;;;;;;5072494;28;20384;-76
2024/02/02 01:10:04;;;;;;;33.97;11.37;;;5.30;71.40;;;;;;5072872;28;20432;-76
2024/02/02 01:12:29;;;;;;;28.73;9.80;;;5.40;70.80;;;;;;5070756;28;20395;-76
2024/02/02 01:14:55;;;;;;;37.03;10.80;;;5.40;70.00;;;;;;5070663;28;20376;-76
2024/02/02 01:17:21;;;;;;;32.15;9.55;;;5.30;71.40;;;;;;5070362;28;20750;-77
2024/02/02 01:19:47;;;;;;;41.15;11.52;;;5.30;71.90;;;;;;5070438;28;20842;-77
2024/02/02 01:22:12;;;;;;;37.00;11.20;;;5.40;69.50;;;;;;5070877;28;20383;-77
2024/02/02 01:24:38;;;;;;;30.40;10.70;;;5.30;71.20;;;;;;5071182;28;20388;-77
2024/02/02 01:27:04;;;;;;;34.97;12.17;;;5.20;71.70;;;;;;5074245;28;20440;-75
2024/02/02 01:29:30;;;;;;;35.65;13.40;;;5.20;71.90;;;;;;5077148;28;20842;-76
2024/02/02 01:31:55;;;;;;;39.35;10.80;;;5.10;73.20;;;;;;5074079;28;20483;-77
2024/02/02 01:34:22;;;;;;;35.53;11.27;;;5.10;73.90;;;;;;5078060;28;20612;-77
2024/02/02 01:36:48;;;;;;;26.67;10.75;;;5.00;74.70;;;;;;5059807;28;20399;-78
2024/02/02 01:39:13;;;;;;;41.03;11.37;;;5.00;75.30;;;;;;5077634;28;20384;-75
2024/02/02 01:41:39;;;;;;;36.60;10.53;;;5.00;74.50;;;;;;5073064;28;20797;-76
2024/02/02 01:44:08;;;;;;;33.53;11.15;;;5.10;74.20;;;;;;5073322;28;20394;-77
2024/02/02 01:46:34;;;;;;;38.65;11.20;;;5.00;74.20;;;;;;5075906;28;20391;-75
2024/02/02 01:48:59;;;;;;;33.47;10.90;;;5.00;74.30;;;;;;5077152;28;20391;-77
2024/02/02 01:51:25;;;;;;;36.07;11.40;;;5.00;75.00;;;;;;5075615;28;20468;-77
2024/02/02 01:53:51;;;;;;;29.37;10.40;;;4.90;75.50;;;;;;5075649;28;20844;-76
2024/02/02 01:56:17;;;;;;;44.58;11.90;;;5.00;75.60;;;;;;5074759;28;20737;-77
2024/02/02 01:58:43;;;;;;;30.97;11.23;;;5.00;74.80;;;;;;5078171;28;20395;-77
2024/02/02 02:01:09;;;;;;;34.47;10.52;;;5.00;75.00;;;;;;5083184;28;20498;-77
2024/02/02 02:03:34;;;;;;;37.72;12.00;;;5.10;74.70;;;;;;5077331;28;20384;-76
2024/02/02 02:06:00;;;;;;;33.33;11.50;;;5.10;74.50;;;;;;5077809;28;20426;-76
2024/02/02 02:08:26;;;;;;;30.00;10.80;;;5.10;74.50;;;;;;5058343;28;20387;-79
2024/02/02 02:10:52;;;;;;;31.77;10.10;;;5.20;74.10;;;;;;5075065;28;20401;-77
2024/02/02 02:13:18;;;;;;;33.30;11.00;;;5.20;73.90;;;;;;5076896;28;20403;-78
2024/02/02 02:15:44;;;;;;;26.75;10.73;;;5.30;73.20;;;;;;5073274;28;20384;-77
2024/02/02 02:18:09;;;;;;;24.70;9.52;;;5.30;72.60;;;;;;5074477;28;20384;-77
2024/02/02 02:20:36;;;;;;;31.97;11.10;;;5.40;72.90;;;;;;5073900;28;20403;-77
2024/02/02 02:23:01;;;;;;;34.20;10.52;;;5.60;70.40;;;;;;5074675;28;20737;-76
2024/02/02 02:25:27;;;;;;;27.80;9.47;;;5.60;70.60;;;;;;5075046;28;20422;-77
2024/02/02 02:27:52;;;;;;;32.43;10.63;;;5.80;68.90;;;;;;5074815;28;20380;-76
2024/02/02 02:30:18;;;;;;;38.43;10.63;;;5.70;69.90;;;;;;5076412;28;20376;-77
2024/02/02 02:32:44;;;;;;;30.40;10.13;;;5.80;68.50;;;;;;5078042;28;20383;-77
2024/02/02 02:35:09;;;;;;;33.90;10.50;;;5.90;68.80;;;;;;5073305;28;20402;-77
2024/02/02 02:37:35;;;;;;;37.60;10.93;;;6.10;65.50;;;;;;5072654;28;20400;-77
2024/02/02 02:40:01;;;;;;;31.48;10.55;;;6.20;64.60;;;;;;5073287;28;20404;-76
2024/02/02 02:42:26;;;;;;;35.47;10.55;;;6.30;63.60;;;;;;5072952;28;20380;-77
2024/02/02 02:44:52;;;;;;;39.80;10.98;;;6.30;64.10;;;;;;5073092;28;20387;-77
2024/02/02 02:47:18;;;;;;;32.30;10.30;;;6.40;63.40;;;;;;5073214;28;20395;-77
2024/02/02 02:49:44;;;;;;;38.08;10.68;;;6.50;61.80;;;;;;5073978;28;20751;-75
2024/02/02 02:52:09;;;;;;;37.60;10.43;;;6.50;61.70;;;;;;5075896;28;20395;-77
2024/02/02 02:54:35;;;;;;;34.87;9.43;;;6.50;61.10;;;;;;5081525;28;20406;-77
2024/02/02 02:57:01;;;;;;;39.80;10.20;;;6.60;60.30;;;;;;5063565;28;20467;-77
2024/02/02 02:59:28;;;;;;;34.93;9.60;;;6.70;59.40;;;;;;5073066;28;20449;-77
2024/02/02 03:01:54;;;;;;;35.75;9.95;;;6.70;58.90;;;;;;5072358;28;20411;-76
2024/02/02 03:04:19;;;;;;;28.02;10.65;;;6.70;59.20;;;;;;5078857;28;20390;-76
2024/02/02 03:06:45;;;;;;;36.30;9.40;;;6.70;59.20;;;;;;5081444;28;20400;-77
2024/02/02 03:09:11;;;;;;;38.30;10.17;;;6.80;57.80;;;;;;5074532;28;20411;-78
2024/02/02 03:11:37;;;;;;;41.85;10.27;;;6.90;57.40;;;;;;5077499;28;20387;-78
2024/02/02 03:14:03;;;;;;;35.10;9.77;;;6.80;56.60;;;;;;5074206;28;20710;-77
2024/02/02 03:16:28;;;;;;;27.73;9.40;;;6.80;57.20;;;;;;5076053;28;20425;-77
2024/02/02 03:18:54;;;;;;;38.13;10.00;;;6.80;57.10;;;;;;5074279;28;20424;-78
2024/02/02 03:21:19;;;;;;;32.90;9.23;;;6.80;57.50;;;;;;5072625;28;20408;-76
2024/02/02 03:23:45;;;;;;;34.70;9.70;;;6.80;56.80;;;;;;5073316;28;20786;-78
2024/02/02 03:26:10;;;;;;;31.70;9.47;;;6.90;56.00;;;;;;5073367;28;20872;-77
2024/02/02 03:28:36;;;;;;;27.67;8.60;;;6.90;56.20;;;;;;5073372;28;20390;-76
2024/02/02 03:31:02;;;;;;;37.47;10.10;;;7.00;55.20;;;;;;5080039;28;20437;-76
2024/02/02 03:33:27;;;;;;;37.37;9.80;;;6.80;56.60;;;;;;5078886;28;20866;-77
2024/02/02 03:35:53;;;;;;;34.53;9.53;;;6.80;56.70;;;;;;5075841;28;20386;-77
2024/02/02 03:38:18;;;;;;;28.57;8.73;;;6.90;56.50;;;;;;5055791;28;20859;-77
2024/02/02 03:40:44;;;;;;;28.30;8.40;;;6.90;56.00;;;;;;5073125;28;20482;-76
2024/02/02 03:43:12;;;;;;;32.20;8.40;;;6.90;55.00;;;;;;5075547;28;20388;-77
2024/02/02 03:45:38;;;;;;;35.47;10.10;;;7.00;54.40;;;;;;5071195;28;20459;-75
2024/02/02 03:48:04;;;;;;;28.87;8.90;;;7.00;55.40;;;;;;5071586;28;20429;-77
2024/02/02 03:50:29;;;;;;;26.60;7.90;;;7.00;55.80;;;;;;5071714;28;20716;-76
2024/02/02 03:52:55;;;;;;;27.80;9.20;;;6.90;56.90;;;;;;5070803;28;20483;-76
2024/02/02 03:55:21;;;;;;;34.03;9.40;;;6.90;56.90;;;;;;5071556;28;20768;-76
2024/02/02 03:57:46;;;;;;;30.27;8.35;;;6.90;57.30;;;;;;5071370;28;20383;-76
2024/02/02 04:00:13;;;;;;;31.60;8.70;;;7.00;57.00;;;;;;5073397;28;20404;-77
2024/02/02 04:02:38;;;;;;;32.03;8.23;;;7.00;57.00;;;;;;5073108;28;20901;-75
2024/02/02 04:05:05;;;;;;;31.50;9.10;;;7.00;56.50;;;;;;5073809;28;20394;-76
2024/02/02 04:07:31;;;;;;;30.02;8.00;;;7.00;56.70;;;;;;5076466;28;20383;-76
2024/02/02 04:09:56;;;;;;;25.80;8.48;;;7.00;56.50;;;;;;5074261;28;20870;-76
2024/02/02 04:12:22;;;;;;;33.30;8.70;;;7.10;56.20;;;;;;5071006;28;20399;-77
2024/02/02 04:14:47;;;;;;;25.07;8.17;;;7.00;56.30;;;;;;5073045;28;20388;-77
2024/02/02 04:17:13;;;;;;;32.63;7.77;;;6.90;57.20;;;;;;5074130;28;20383;-76
2024/02/02 04:19:38;;;;;;;34.27;8.93;;;6.90;57.40;;;;;;5073321;28;20750;-75
2024/02/02 04:22:04;;;;;;;34.13;8.67;;;7.00;56.20;;;;;;5072433;28;20387;-76
2024/02/02 04:24:29;;;;;;;26.17;8.03;;;7.00;55.90;;;;;;5072793;28;20384;-77
2024/02/02 04:26:55;;;;;;;27.23;7.97;;;7.00;55.60;;;;;;5080185;28;20451;-76
2024/02/02 04:29:20;;;;;;;37.03;8.70;;;7.00;55.10;;;;;;5072861;28;20407;-76
2024/02/02 04:31:46;;;;;;;28.43;8.50;;;7.00;55.60;;;;;;5074138;28;20399;-76
2024/02/02 04:34:11;;;;;;;31.80;8.18;;;7.00;55.50;;;;;;5072977;28;20489;-77
2024/02/02 04:36:39;;;;;;;25.30;7.45;;;7.10;55.30;;;;;;5074534;28;20395;-77
2024/02/02 04:39:04;;;;;;;24.27;7.50;;;7.10;55.60;;;;;;5072939;28;20391;-76
2024/02/02 04:41:30;;;;;;;29.42;8.23;;;7.10;54.90;;;;;;5070654;28;20426;-76
2024/02/02 04:43:56;;;;;;;21.98;8.00;;;6.90;55.70;;;;;;5071593;28;20878;-76
2024/02/02 04:46:21;;;;;;;34.78;9.02;;;7.00;55.80;;;;;;5071603;28;20384;-76
2024/02/02 04:48:47;;;;;;;24.10;7.13;;;7.00;55.90;;;;;;5070728;28;20380;-75
2024/02/02 04:51:12;;;;;;;27.97;8.80;;;7.00;55.40;;;;;;5070716;28;20457;-75
2024/02/02 04:53:38;;;;;;;24.80;8.40;;;7.10;54.80;;;;;;5072172;28;20429;-74
2024/02/02 04:56:03;;;;;;;33.20;8.50;;;7.00;54.80;;;;;;5070510;28;20394;-73
2024/02/02 04:58:30;;;;;;;28.23;7.97;;;7.00;55.20;;;;;;5070455;28;20396;-73
2024/02/02 05:00:55;;;;;;;26.80;8.32;;;7.10;54.10;;;;;;5071682;28;20410;-73
2024/02/02 05:03:21;;;;;;;24.33;8.05;;;7.10;53.40;;;;;;5056139;28;20382;-73
2024/02/02 05:05:46;;;;;;;27.42;8.40;;;7.00;54.00;;;;;;5073944;28;20384;-72
2024/02/02 05:08:12;;;;;;;29.55;8.20;;;7.00;54.80;;;;;;5073560;28;20502;-73
2024/02/02 05:10:38;;;;;;;27.58;8.40;;;7.00;54.60;;;;;;5073396;28;20415;-75
2024/02/02 05:13:04;;;;;;;30.87;9.30;;;7.00;54.00;;;;;;5073559;28;20499;-75
2024/02/02 05:15:29;;;;;;;33.13;8.60;;;7.00;53.70;;;;;;5074578;28;20406;-77
2024/02/02 05:17:55;;;;;;;33.10;8.47;;;7.00;54.00;;;;;;5076429;28;20485;-77
2024/02/02 05:20:20;;;;;;;33.70;9.80;;;7.10;53.40;;;;;;5076995;28;20397;-77
2024/02/02 05:22:46;;;;;;;36.70;10.40;;;7.20;52.50;;;;;;5076238;28;20787;-77
2024/02/02 05:25:12;;;;;;;33.97;9.90;;;7.20;52.20;;;;;;5077356;28;20379;-77
2024/02/02 05:27:37;;;;;;;29.02;8.75;;;7.10;52.50;;;;;;5077315;28;20855;-75
2024/02/02 05:30:07;;;;;;;33.07;9.83;;;7.10;52.90;;;;;;5081881;28;20380;-77
2024/02/02 05:32:32;;;;;;;31.85;9.68;;;7.10;52.80;;;;;;5077872;28;20854;-76
2024/02/02 05:34:58;;;;;;;43.30;10.37;;;7.00;52.90;;;;;;5078989;28;20398;-75
2024/02/02 05:37:23;;;;;;;37.27;10.80;;;7.00;53.50;;;;;;5076327;28;20395;-77
2024/02/02 05:39:49;;;;;;;27.15;9.60;;;7.00;53.40;;;;;;5077603;28;20391;-78
2024/02/02 05:42:15;;;;;;;37.70;9.50;;;7.10;52.50;;;;;;5076188;28;20383;-77
2024/02/02 05:44:42;;;;;;;35.83;9.00;;;7.10;52.70;;;;;;5075712;28;20465;-77
2024/02/02 05:47:07;;;;;;;41.47;10.35;;;7.00;52.50;;;;;;5081463;28;20411;-77
2024/02/02 05:49:33;;;;;;;32.25;9.38;;;7.00;52.50;;;;;;5075748;28;20376;-78
2024/02/02 05:52:00;;;;;;;35.28;9.35;;;7.10;52.40;;;;;;5075323;28;20942;-77
2024/02/02 05:54:25;;;;;;;43.15;10.10;;;7.00;52.70;;;;;;5076807;28;20383;-77
2024/02/02 05:56:51;;;;;;;31.67;10.10;;;7.00;53.00;;;;;;5078677;28;20911;-77
2024/02/02 05:59:16;;;;;;;33.53;10.30;;;7.00;52.00;;;;;;5076514;28;20384;-77
2024/02/02 06:01:42;;;;;;;37.72;10.00;;;7.00;52.30;;;;;;5078202;28;20407;-77
2024/02/02 06:04:08;;;;;;;31.27;9.60;;;7.00;52.20;;;;;;5076064;28;20388;-77
2024/02/02 06:06:34;;;;;;;31.10;8.85;;;7.00;51.80;;;;;;5076975;28;20380;-78
2024/02/02 06:08:59;;;;;;;33.10;9.60;;;7.00;51.40;;;;;;5078508;28;20898;-79
2024/02/02 06:11:25;;;;;;;31.03;10.07;;;7.10;51.30;;;;;;5075796;28;20723;-77
2024/02/02 06:13:54;;;;;;;29.67;9.50;;;7.00;51.70;;;;;;5077705;28;20898;-77
2024/02/02 06:16:21;;;;;;;39.63;9.50;;;7.00;51.80;;;;;;5077081;28;20467;-77
2024/02/02 06:18:46;;;;;;;42.67;10.30;;;6.90;52.30;;;;;;5076996;28;20571;-78
2024/02/02 06:21:12;;;;;;;34.25;10.00;;;7.00;51.90;;;;;;5077388;28;20406;-76
2024/02/02 06:23:37;;;;;;;31.58;9.77;;;6.90;52.00;;;;;;5078394;28;20482;-79
2024/02/02 06:26:03;;;;;;;29.13;8.35;;;6.80;52.20;;;;;;5076531;28;20414;-77
2024/02/02 06:28:28;;;;;;;31.30;8.45;;;6.90;51.50;;;;;;5076420;28;20380;-78
2024/02/02 06:30:54;;;;;;;33.88;8.63;;;6.90;51.50;;;;;;5074764;28;20383;-76
2024/02/02 06:33:19;;;;;;;35.33;8.90;;;6.90;51.20;;;;;;5076225;28;20886;-76
2024/02/02 06:35:45;;;;;;;32.90;8.80;;;6.80;51.60;;;;;;5078242;28;20754;-75
2024/02/02 06:38:11;;;;;;;33.95;8.13;;;6.70;51.70;;;;;;5073802;28;20471;-78
2024/02/02 06:40:38;;;;;;;29.73;8.27;;;6.80;51.30;;;;;;5075164;28;20407;-77
2024/02/02 06:43:04;;;;;;;32.83;8.68;;;6.80;50.80;;;;;;5073251;28;20440;-77
2024/02/02 06:45:30;;;;;;;26.77;8.38;;;6.80;50.30;;;;;;5074755;28;20878;-77
2024/02/02 06:47:56;;;;;;;26.10;7.80;;;6.80;50.70;;;;;;5075309;28;20380;-76
2024/02/02 06:50:21;;;;;;;33.27;7.80;;;6.80;50.50;;;;;;5074390;28;20379;-77
2024/02/02 06:52:47;;;;;;;29.77;7.30;;;6.80;50.20;;;;;;5075499;28;20391;-78
2024/02/02 06:55:14;;;;;;;29.52;8.00;;;6.80;50.40;;;;;;5075027;28;20415;-78
2024/02/02 06:57:42;;;;;;;31.92;8.48;;;6.80;49.60;;;;;;5074401;28;20864;-77
2024/02/02 07:00:14;;;;;;;24.27;7.20;;;6.70;49.70;;;;;;5073368;28;20403;-76
2024/02/02 07:02:41;;;;;;;35.10;8.13;;;6.80;49.50;;;;;;5075160;28;20768;-75
2024/02/02 07:05:07;;;;;;;28.10;7.85;;;6.70;50.00;;;;;;5077058;28;20367;-76
2024/02/02 07:07:32;;;;;;;33.47;7.88;;;6.50;50.30;;;;;;5075689;28;20475;-77
2024/02/02 07:09:58;;;;;;;44.67;8.50;;;6.60;50.50;;;;;;5073756;28;20437;-78
2024/02/02 07:12:57;;;;;;;30.47;7.00;;;6.60;49.80;;;;;;5074246;28;20413;-79
2024/02/02 07:15:25;;;;;;;24.90;7.53;;;6.60;49.30;;;;;;5074294;28;20375;-78
2024/02/02 07:17:51;;;;;;;28.33;6.30;;;6.60;49.20;;;;;;5075503;28;20457;-77
2024/02/02 07:20:23;;;;;;;26.15;7.43;;;6.60;48.80;;;;;;5075162;28;20414;-78
2024/02/02 07:22:54;;;;;;;20.92;6.90;;;6.60;49.20;;;;;;5073941;28;20456;-78
2024/02/02 07:25:21;;;;;;;32.60;8.00;;;6.50;49.80;;;;;;5077348;28;20387;-76
2024/02/02 07:27:54;;;;;;;23.80;7.00;;;6.50;49.50;;;;;;5075017;28;20384;-77
2024/02/02 07:30:41;;;;;;;22.53;6.30;;;6.60;48.20;;;;;;5076009;28;20787;-78
2024/02/02 07:33:20;;;;;;;23.02;6.70;;;6.60;47.90;;;;;;5072919;28;20412;-76
2024/02/02 07:35:45;;;;;;;21.10;6.67;;;6.60;47.70;;;;;;5075605;28;20446;-77
2024/02/02 07:38:37;;;;;;;25.97;6.20;;;6.60;47.50;;;;;;5076901;28;20411;-77
2024/02/02 07:41:03;;;;;;;23.50;6.22;;;6.60;46.90;;;;;;5076850;28;20411;-76
2024/02/02 07:43:32;;;;;;;24.48;7.57;;;6.60;47.40;;;;;;5084924;28;20379;-76
2024/02/02 07:46:02;;;;;;;23.40;6.72;;;6.50;47.90;;;;;;5079485;28;20387;-76
2024/02/02 07:48:27;;;;;;;24.50;7.35;;;6.50;47.40;;;;;;5059190;28;20391;-77
2024/02/02 07:50:53;;;;;;;27.95;6.40;;;6.60;46.80;;;;;;5076783;28;20387;-78
2024/02/02 07:53:19;;;;;;;22.27;6.20;;;6.60;46.60;;;;;;5057459;28;20387;-76
2024/02/02 07:55:45;;;;;;;33.40;6.65;;;6.60;46.00;;;;;;5074505;28;20846;-77
2024/02/02 07:58:10;;;;;;;21.30;5.60;;;6.70;45.50;;;;;;5074905;28;20897;-76
2024/02/02 08:00:36;;;;;;;27.07;6.07;;;6.60;45.60;;;;;;5076312;28;20411;-79
2024/02/02 08:03:04;;;;;;;23.45;6.30;;;6.70;45.40;;;;;;5078856;28;20448;-75
2024/02/02 08:05:30;;;;;;;27.45;6.85;;;6.80;45.00;;;;;;5076458;28;20466;-76
2024/02/02 08:07:55;;;;;;;22.37;6.50;;;6.90;44.60;;;;;;5076249;28;20407;-76
2024/02/02 08:10:21;;;;;;;21.10;5.63;;;6.90;44.10;;;;;;5063027;28;20434;-75
2024/02/02 08:12:46;;;;;;;25.57;6.30;;;7.00;43.40;;;;;;5078713;28;20480;-77
2024/02/02 08:15:12;;;;;;;20.48;5.82;;;7.10;43.30;;;;;;5072119;28;20379;-78
2024/02/02 08:17:37;;;;;;;23.95;6.78;;;7.10;42.60;;;;;;5072670;28;20383;-77
2024/02/02 08:20:03;;;;;;;21.27;5.95;;;7.10;42.50;;;;;;5074939;28;20382;-76
2024/02/02 08:22:29;;;;;;;26.25;6.25;;;7.20;41.90;;;;;;5080065;28;20379;-76
2024/02/02 08:24:54;;;;;;;23.37;6.00;;;7.40;40.70;;;;;;5078465;28;20391;-76
2024/02/02 08:27:20;;;;;;;24.80;6.20;;;7.50;40.40;;;;;;5072707;28;20802;-76
2024/02/02 08:29:47;;;;;;;19.40;5.83;;;7.60;39.70;;;;;;5072645;28;20873;-76
2024/02/02 08:32:13;;;;;;;21.20;6.18;;;7.60;39.60;;;;;;5070324;28;20437;-76
2024/02/02 08:34:39;;;;;;;20.75;5.10;;;7.60;39.50;;;;;;5070549;28;20392;-76
2024/02/02 08:37:05;;;;;;;24.73;6.27;;;7.70;38.80;;;;;;5070024;28;20586;-75
2024/02/02 08:39:34;;;;;;;28.57;5.87;;;7.70;38.80;;;;;;5052538;28;20407;-75
2024/02/02 08:42:00;;;;;;;22.53;5.50;;;7.70;38.70;;;;;;5052122;28;20404;-75
2024/02/02 08:44:30;;;;;;;21.52;5.80;;;7.80;38.20;;;;;;5052900;28;20387;-77
2024/02/02 08:46:57;;;;;;;23.55;6.05;;;7.80;37.90;;;;;;5072879;28;20387;-77
2024/02/02 08:49:54;;;;;;;26.23;6.40;;;7.80;37.80;;;;;;5070884;28;20441;-76
2024/02/02 08:52:31;;;;;;;22.00;5.20;;;7.90;38.00;;;;;;5070837;28;20372;-75
2024/02/02 08:54:57;;;;;;;16.02;4.90;;;8.00;37.40;;;;;;5071369;28;20458;-77
2024/02/02 08:58:07;;;;;;;20.25;5.10;;;8.00;37.40;;;;;;5072229;28;20904;-76
2024/02/02 09:00:41;;;;;;;16.77;5.40;;;8.00;37.10;;;;;;5071808;28;20444;-76
2024/02/02 09:03:07;;;;;;;22.27;5.32;;;8.10;36.90;;;;;;5071997;28;20379;-78
2024/02/02 09:05:51;;;;;;;22.77;5.57;;;8.20;36.80;;;;;;5071900;28;20408;-76
2024/02/02 09:08:39;;;;;;;15.77;5.70;;;8.20;37.20;;;;;;5071107;28;20447;-76
2024/02/02 09:11:21;;;;;;;27.85;5.57;;;8.30;36.70;;;;;;5071070;28;20387;-77
2024/02/02 09:13:47;;;;;;;20.50;5.38;;;8.40;36.30;;;;;;5067558;28;20902;-75
2024/02/02 09:16:17;;;;;;;26.60;6.18;;;8.40;36.20;;;;;;5069765;28;20383;-76
2024/02/02 09:18:45;;;;;;;20.70;5.40;;;8.40;36.70;;;;;;5070356;28;20423;-76
2024/02/02 09:21:14;;;;;;;24.23;6.10;;;8.40;36.40;;;;;;5070334;28;20399;-76
2024/02/02 09:23:49;;;;;;;23.30;6.20;;;8.40;36.10;;;;;;5068513;28;20419;-77
2024/02/02 09:26:16;;;;;;;22.50;4.90;;;8.40;36.80;;;;;;5070353;28;20881;-76
2024/02/02 09:28:43;;;;;;;21.40;5.30;;;8.50;36.50;;;;;;5070078;28;20529;-75
2024/02/02 09:31:21;;;;;;;13.48;4.40;;;8.60;36.10;;;;;;5070217;28;20388;-77
2024/02/02 09:33:51;;;;;;;26.65;5.40;;;8.70;36.00;;;;;;5069935;28;20380;-77
2024/02/02 09:36:18;;;;;;;17.25;5.20;;;8.70;35.80;;;;;;5069841;28;20380;-76
2024/02/02 09:39:00;;;;;;;18.33;4.90;;;8.60;36.00;;;;;;5069821;28;20475;-75
2024/02/02 09:42:04;;;;;;;21.67;5.25;;;8.60;36.10;;;;;;5069717;28;20404;-76
2024/02/02 09:44:42;;;;;;;20.67;5.37;;;8.60;36.60;;;;;;5069658;28;20458;-76
2024/02/02 09:47:18;;;;;;;24.25;5.55;;;8.60;36.70;;;;;;5071082;28;20754;-76
2024/02/02 09:50:14;;;;;;;21.48;5.70;;;8.60;36.60;;;;;;5073361;28;20378;-76
2024/02/02 09:53:05;;;;;;;24.08;6.05;;;8.70;37.40;;;;;;5073957;28;20376;-75
2024/02/02 09:55:53;;;;;;;26.25;5.97;;;8.70;36.50;;;;;;5072013;28;20384;-76
2024/02/02 09:58:29;;;;;;;16.73;5.00;;;8.80;37.10;;;;;;5073378;28;20408;-75
2024/02/02 10:01:32;;;;;;;21.00;5.80;;;8.90;36.60;;;;;;5073527;28;20396;-74
2024/02/02 10:04:44;;;;;;;19.60;5.53;;;9.00;36.30;;;;;;5073402;28;20585;-77
2024/02/02 10:07:28;;;;;;;25.90;5.55;;;9.00;36.50;;;;;;5073601;28;20371;-76
2024/02/02 10:10:10;;;;;;;18.85;5.18;;;9.20;35.90;;;;;;5073504;28;20859;-74
2024/02/02 10:13:20;;;;;;;18.08;5.20;;;9.20;35.70;;;;;;5074468;28;20415;-76
2024/02/02 10:16:10;;;;;;;20.02;5.72;;;9.20;36.00;;;;;;5078679;28;20425;-76
2024/02/02 10:18:52;;;;;;;20.63;5.07;;;9.10;36.80;;;;;;5072885;28;20425;-75
2024/02/02 10:22:00;;;;;;;16.60;5.65;;;9.20;36.60;;;;;;5072106;28;20887;-75
2024/02/02 10:24:39;;;;;;;20.75;5.47;;;9.30;36.10;;;;;;5072786;28;20406;-75
2024/02/02 10:27:05;;;;;;;22.52;5.15;;;9.40;35.60;;;;;;5072931;28;20395;-76
2024/02/02 10:30:18;;;;;;;34.87;5.60;;;9.30;36.10;;;;;;5074514;28;20396;-75
2024/02/02 10:32:52;;;;;;;17.85;5.13;;;9.20;36.50;;;;;;5072266;28;20387;-75
2024/02/02 10:35:35;;;;;;;25.80;5.73;;;9.10;37.10;;;;;;5072450;28;20386;-75
2024/02/02 10:38:18;;;;;;;16.43;5.20;;;9.20;36.90;;;;;;5072732;28;20379;-74
2024/02/02 10:41:13;;;;;;;24.48;5.47;;;9.30;36.90;;;;;;5072284;28;20444;-75
2024/02/02 10:43:53;;;;;;;26.33;5.30;;;9.40;36.80;;;;;;5062758;28;20418;-75
2024/02/02 10:46:45;;;;;;;26.70;6.05;;;9.50;36.80;;;;;;5072054;28;20383;-75
2024/02/02 10:49:18;;;;;;;21.98;6.20;;;9.60;36.90;;;;;;5072308;28;20384;-75
2024/02/02 10:51:59;;;;;;;20.43;5.90;;;9.60;36.40;;;;;;5071916;28;20495;-75
2024/02/02 10:54:50;;;;;;;31.45;6.10;;;9.80;36.10;;;;;;5072818;28;20372;-75
2024/02/02 10:57:28;;;;;;;20.52;6.07;;;9.90;35.80;;;;;;5072974;28;20898;-76
2024/02/02 11:00:16;;;;;;;20.38;5.68;;;9.90;36.00;;;;;;5072179;28;20392;-76
2024/02/02 11:03:00;;;;;;;23.83;5.90;;;10.00;36.00;;;;;;5072688;28;20442;-77
2024/02/02 11:05:53;;;;;;;17.73;5.63;;;10.10;36.20;;;;;;5075071;28;20517;-77
2024/02/02 11:08:21;;;;;;;21.13;5.70;;;10.20;35.50;;;;;;5071007;28;20418;-75
2024/02/02 11:11:14;;;;;;;22.05;5.72;;;10.30;35.20;;;;;;5071899;28;20411;-76
2024/02/02 11:13:59;;;;;;;28.58;6.45;;;10.40;34.90;;;;;;5071527;28;20442;-74
2024/02/02 11:17:10;;;;;;;22.20;5.75;;;10.50;35.00;;;;;;5073572;28;20380;-75
2024/02/02 11:19:56;;;;;;;16.95;5.68;;;10.50;34.80;;;;;;5055246;28;20388;-75
2024/02/02 11:22:49;;;;;;;26.98;7.10;;;10.50;35.00;;;;;;5072917;28;20866;-75
2024/02/02 11:25:49;;;;;;;19.27;5.85;;;10.60;34.70;;;;;;5071167;28;20590;-75
2024/02/02 11:28:43;;;;;;;28.60;6.20;;;10.70;34.40;;;;;;5071281;28;20372;-76
2024/02/02 11:31:46;;;;;;;26.80;6.00;;;10.60;35.30;;;;;;5071608;28;20870;-76
2024/02/02 11:34:42;;;;;;;22.13;5.90;;;10.50;35.30;;;;;;5057322;28;20423;-75
2024/02/02 11:37:27;;;;;;;18.33;5.90;;;10.70;35.80;;;;;;5071946;28;20372;-75
2024/02/02 11:40:00;;;;;;;21.55;6.05;;;10.70;35.60;;;;;;5071290;28;20896;-76
2024/02/02 11:42:27;;;;;;;21.85;5.88;;;10.70;35.90;;;;;;5070912;28;20379;-76
2024/02/02 11:44:59;;;;;;;21.52;7.07;;;10.70;35.50;;;;;;5070713;28;20896;-74
2024/02/02 11:47:25;;;;;;;22.43;6.63;;;10.70;35.70;;;;;;5071106;28;20380;-75
2024/02/02 11:50:05;;;;;;;18.25;6.20;;;10.70;36.40;;;;;;5070947;28;20930;-75
2024/02/02 11:52:41;;;;;;;19.50;6.40;;;10.60;36.40;;;;;;5070520;28;20384;-74
2024/02/02 11:55:26;;;;;;;16.23;6.63;;;10.70;36.40;;;;;;5071076;28;20389;-75
2024/02/02 11:57:59;;;;;;;20.45;6.43;;;10.70;36.40;;;;;;5070869;28;20379;-75
2024/02/02 12:00:46;;;;;;;19.50;6.30;;;10.60;36.60;;;;;;5070791;28;20402;-75
2024/02/02 12:03:28;;;;;;;22.70;6.90;;;10.70;36.90;;;;;;5070298;28;20536;-76
2024/02/02 12:06:14;;;;;;;23.05;6.68;;;10.80;36.80;;;;;;5070925;28;20379;-75
2024/02/02 12:08:50;;;;;;;29.03;7.07;;;10.80;37.00;;;;;;5070377;28;20442;-76
2024/02/02 12:11:18;;;;;;;18.73;6.78;;;10.70;37.50;;;;;;5073946;28;20376;-75
2024/02/02 12:13:46;;;;;;;17.27;6.88;;;10.70;37.80;;;;;;5070390;28;20439;-76
2024/02/02 12:16:12;;;;;;;16.33;6.28;;;10.60;38.20;;;;;;5070611;28;20391;-75
2024/02/02 12:18:37;;;;;;;20.83;7.30;;;10.50;38.50;;;;;;5053096;28;20399;-74
2024/02/02 12:21:11;;;;;;;21.53;7.60;;;10.50;38.90;;;;;;5070256;28;20407;-75
2024/02/02 12:23:37;;;;;;;25.13;7.22;;;10.70;38.80;;;;;;5051964;28;20449;-75
2024/02/02 12:26:03;;;;;;;28.70;7.78;;;10.90;38.20;;;;;;5070548;28;20383;-75
2024/02/02 12:28:28;;;;;;;21.52;7.47;;;11.00;37.70;;;;;;5070487;28;20411;-75
2024/02/02 12:30:54;;;;;;;19.93;7.50;;;11.10;37.50;;;;;;5070528;28;20456;-75
2024/02/02 12:33:21;;;;;;;25.30;7.80;;;11.10;37.40;;;;;;5070265;28;20962;-75
2024/02/02 12:35:46;;;;;;;21.67;7.60;;;11.10;37.50;;;;;;5070343;28;20390;-76
2024/02/02 12:38:22;;;;;;;28.60;8.10;;;11.10;37.80;;;;;;5071041;28;20866;-75
2024/02/02 12:40:51;;;;;;;21.25;7.72;;;11.10;38.20;;;;;;5071670;28;20430;-76
2024/02/02 12:43:24;;;;;;;27.65;8.32;;;11.10;38.60;;;;;;5038048;28;20392;-76
2024/02/02 12:45:50;;;;;;;25.40;7.70;;;11.10;39.00;;;;;;5071834;28;20746;-75
2024/02/02 12:48:16;;;;;;;21.52;7.90;;;11.00;38.90;;;;;;5072746;28;20517;-75
2024/02/02 12:50:43;;;;;;;22.70;7.93;;;11.00;39.60;;;;;;5053635;28;20383;-75
2024/02/02 12:53:10;;;;;;;20.55;7.93;;;11.20;39.30;;;;;;5070995;28;20751;-74
2024/02/02 12:55:35;;;;;;;21.52;7.57;;;11.30;39.20;;;;;;5070648;28;20401;-74
2024/02/02 12:58:01;;;;;;;22.23;8.20;;;11.30;39.30;;;;;;5071736;28;20765;-76
2024/02/02 13:00:27;;;;;;;18.60;8.40;;;11.10;40.30;;;;;;5071173;28;20487;-76